sensor_id;sensor_type;location;lat;lon;timestamp;pressure;altitude;pressure_sealevel;temperature;humidity
3206;BME280;1615;53.602;11.418;2022-11-30T00:01:55;101940.38;;;7.24;100.00
3206;BME280;1615;53.602;11.418;2022-11-30T00:04:20;101935.25;;;7.27;100.00
3206;BME280;1615;53.602;11.418;2022-11-30T00:06:45;101937.09;;;7.22;100.00
3206;BME280;1615;53.602;11.418;2022-11-30T00:09:11;101939.22;;;7.20;100.00
3206;BME280;1615;53.602;11.418;2022-11-30T00:11:37;101942.53;;;7.22;100.00
3206;BME280;1615;53.602;11.418;2022-11-30T00:14:02;101938.72;;;7.23;100.00
3206;BME280;1615;53.602;11.418;2022-11-30T00:16:27;101943.34;;;7.22;100.00
3206;BME280;1615;53.602;11.418;2022-11-30T00:18:53;101941.13;;;7.19;100.00
3206;BME280;1615;53.602;11.418;2022-11-30T00:21:18;101844.38;;;6.43;100.00
3206;BME280;1615;53.602;11.418;2022-11-30T00:23:45;101949.06;;;7.21;100.00
3206;BME280;1615;53.602;11.418;2022-11-30T00:26:14;101945.63;;;7.14;100.00
3206;BME280;1615;53.602;11.418;2022-11-30T00:28:41;101947.78;;;7.12;100.00
3206;BME280;1615;53.602;11.418;2022-11-30T00:31:11;101943.97;;;7.13;100.00
3206;BME280;1615;53.602;11.418;2022-11-30T00:33:38;101954.66;;;7.14;100.00
3206;BME280;1615;53.602;11.418;2022-11-30T00:36:14;101953.44;;;7.22;100.00
3206;BME280;1615;53.602;11.418;2022-11-30T00:38:40;101956.19;;;7.10;100.00
3206;BME280;1615;53.602;11.418;2022-11-30T00:41:06;101936.78;;;7.07;100.00
3206;BME280;1615;53.602;11.418;2022-11-30T00:43:32;101961.06;;;7.20;100.00
3206;BME280;1615;53.602;11.418;2022-11-30T00:45:57;101884.34;;;6.77;100.00
3206;BME280;1615;53.602;11.418;2022-11-30T00:48:23;101883.66;;;6.70;100.00
3206;BME280;1615;53.602;11.418;2022-11-30T00:50:49;101957.03;;;7.11;100.00
3206;BME280;1615;53.602;11.418;2022-11-30T00:53:15;101870.41;;;6.62;100.00
3206;BME280;1615;53.602;11.418;2022-11-30T00:55:42;101952.94;;;7.25;100.00
3206;BME280;1615;53.602;11.418;2022-11-30T00:58:08;101959.38;;;7.19;100.00
3206;BME280;1615;53.602;11.418;2022-11-30T01:00:33;101960.44;;;7.18;100.00
3206;BME280;1615;53.602;11.418;2022-11-30T01:02:59;101901.66;;;6.71;100.00
3206;BME280;1615;53.602;11.418;2022-11-30T01:05:24;101965.91;;;7.18;100.00
3206;BME280;1615;53.602;11.418;2022-11-30T01:07:50;101951.78;;;7.21;100.00
3206;BME280;1615;53.602;11.418;2022-11-30T01:10:15;101955.72;;;7.13;100.00
3206;BME280;1615;53.602;11.418;2022-11-30T01:12:40;101873.84;;;6.69;100.00
3206;BME280;1615;53.602;11.418;2022-11-30T01:15:06;101949.44;;;7.13;100.00
3206;BME280;1615;53.602;11.418;2022-11-30T01:17:32;101953.97;;;7.07;100.00
3206;BME280;1615;53.602;11.418;2022-11-30T01:19:58;101959.16;;;7.09;100.00
3206;BME280;1615;53.602;11.418;2022-11-30T01:22:23;101955.38;;;7.10;100.00
3206;BME280;1615;53.602;11.418;2022-11-30T01:24:49;101956.72;;;6.96;100.00
3206;BME280;1615;53.602;11.418;2022-11-30T01:27:14;101957.78;;;6.95;100.00
3206;BME280;1615;53.602;11.418;2022-11-30T01:29:39;101886.03;;;6.55;100.00
3206;BME280;1615;53.602;11.418;2022-11-30T01:32:05;101962.28;;;6.89;100.00
3206;BME280;1615;53.602;11.418;2022-11-30T01:34:30;101963.69;;;6.92;100.00
3206;BME280;1615;53.602;11.418;2022-11-30T01:36:55;101952.69;;;6.87;100.00
3206;BME280;1615;53.602;11.418;2022-11-30T01:39:21;101963.81;;;7.08;100.00
3206;BME280;1615;53.602;11.418;2022-11-30T01:41:46;101970.06;;;7.09;100.00
3206;BME280;1615;53.602;11.418;2022-11-30T01:47:05;101977.66;;;7.07;100.00
3206;BME280;1615;53.602;11.418;2022-11-30T01:49:39;101977.19;;;7.10;100.00
3206;BME280;1615;53.602;11.418;2022-11-30T01:54:39;101976.13;;;7.11;100.00
3206;BME280;1615;53.602;11.418;2022-11-30T01:57:13;101969.94;;;7.15;100.00
3206;BME280;1615;53.602;11.418;2022-11-30T01:59:40;101967.25;;;7.04;100.00
3206;BME280;1615;53.602;11.418;2022-11-30T02:02:05;101966.28;;;7.10;100.00
3206;BME280;1615;53.602;11.418;2022-11-30T02:04:33;101961.53;;;7.17;100.00
3206;BME280;1615;53.602;11.418;2022-11-30T02:07:01;101958.78;;;7.17;100.00
3206;BME280;1615;53.602;11.418;2022-11-30T02:09:27;101954.19;;;7.17;100.00
3206;BME280;1615;53.602;11.418;2022-11-30T02:11:55;101968.41;;;7.08;100.00
3206;BME280;1615;53.602;11.418;2022-11-30T02:14:32;101949.09;;;6.98;100.00
3206;BME280;1615;53.602;11.418;2022-11-30T02:22:40;101957.28;;;6.98;100.00
3206;BME280;1615;53.602;11.418;2022-11-30T02:25:44;101949.09;;;6.98;100.00
3206;BME280;1615;53.602;11.418;2022-11-30T02:30:36;101962.75;;;6.98;100.00
3206;BME280;1615;53.602;11.418;2022-11-30T02:33:09;101956.34;;;7.04;100.00
3206;BME280;1615;53.602;11.418;2022-11-30T02:35:39;101955.97;;;7.00;100.00
3206;BME280;1615;53.602;11.418;2022-11-30T02:38:07;101955.16;;;7.00;100.00
3206;BME280;1615;53.602;11.418;2022-11-30T02:40:34;101965.91;;;7.06;100.00
3206;BME280;1615;53.602;11.418;2022-11-30T02:43:01;101947.47;;;6.97;100.00
3206;BME280;1615;53.602;11.418;2022-11-30T02:49:10;101997.25;;;6.92;100.00
3206;BME280;1615;53.602;11.418;2022-11-30T02:51:39;101913.16;;;6.61;100.00
3206;BME280;1615;53.602;11.418;2022-11-30T02:54:05;101960.50;;;6.95;100.00
3206;BME280;1615;53.602;11.418;2022-11-30T02:56:31;101944.72;;;6.97;100.00
3206;BME280;1615;53.602;11.418;2022-11-30T02:58:57;101966.06;;;7.00;100.00
3206;BME280;1615;53.602;11.418;2022-11-30T03:01:24;101855.28;;;6.31;100.00
3206;BME280;1615;53.602;11.418;2022-11-30T03:03:49;101976.88;;;6.95;100.00
3206;BME280;1615;53.602;11.418;2022-11-30T03:06:15;101929.63;;;6.66;100.00
3206;BME280;1615;53.602;11.418;2022-11-30T03:08:40;101890.47;;;6.44;100.00
3206;BME280;1615;53.602;11.418;2022-11-30T03:11:05;101977.94;;;6.94;100.00
3206;BME280;1615;53.602;11.418;2022-11-30T03:13:32;101983.41;;;6.94;100.00
3206;BME280;1615;53.602;11.418;2022-11-30T03:15:57;101926.91;;;6.78;100.00
3206;BME280;1615;53.602;11.418;2022-11-30T03:18:30;101985.72;;;7.02;100.00
3206;BME280;1615;53.602;11.418;2022-11-30T03:20:56;101981.25;;;6.96;100.00
3206;BME280;1615;53.602;11.418;2022-11-30T03:23:21;101984.19;;;6.94;100.00
3206;BME280;1615;53.602;11.418;2022-11-30T03:25:47;101991.88;;;7.09;100.00
3206;BME280;1615;53.602;11.418;2022-11-30T03:28:12;101987.25;;;7.09;100.00
3206;BME280;1615;53.602;11.418;2022-11-30T03:30:37;101984.56;;;6.98;100.00
3206;BME280;1615;53.602;11.418;2022-11-30T03:33:03;101960.75;;;6.93;100.00
3206;BME280;1615;53.602;11.418;2022-11-30T03:35:28;101988.59;;;6.95;100.00
3206;BME280;1615;53.602;11.418;2022-11-30T03:37:53;102005.06;;;7.00;100.00
3206;BME280;1615;53.602;11.418;2022-11-30T03:40:19;101976.06;;;6.83;100.00
3206;BME280;1615;53.602;11.418;2022-11-30T03:42:44;101872.00;;;6.23;100.00
3206;BME280;1615;53.602;11.418;2022-11-30T03:45:09;102002.94;;;7.02;100.00
3206;BME280;1615;53.602;11.418;2022-11-30T03:47:35;102004.25;;;7.00;100.00
3206;BME280;1615;53.602;11.418;2022-11-30T03:50:01;102002.22;;;6.95;100.00
3206;BME280;1615;53.602;11.418;2022-11-30T03:52:26;102006.94;;;7.11;100.00
3206;BME280;1615;53.602;11.418;2022-11-30T03:54:51;102010.03;;;7.03;100.00
3206;BME280;1615;53.602;11.418;2022-11-30T03:57:17;102016.34;;;7.04;100.00
3206;BME280;1615;53.602;11.418;2022-11-30T03:59:42;102010.88;;;7.04;100.00
3206;BME280;1615;53.602;11.418;2022-11-30T04:02:07;102009.91;;;7.10;100.00
3206;BME280;1615;53.602;11.418;2022-11-30T04:04:33;102012.03;;;7.08;100.00
3206;BME280;1615;53.602;11.418;2022-11-30T04:06:58;102006.25;;;7.04;100.00
3206;BME280;1615;53.602;11.418;2022-11-30T04:09:23;102001.63;;;7.05;100.00
3206;BME280;1615;53.602;11.418;2022-11-30T04:11:51;102006.00;;;7.06;100.00
3206;BME280;1615;53.602;11.418;2022-11-30T04:14:17;102010.97;;;7.09;100.00
3206;BME280;1615;53.602;11.418;2022-11-30T04:16:42;102006.13;;;7.11;100.00
3206;BME280;1615;53.602;11.418;2022-11-30T04:19:07;102006.94;;;7.11;100.00
3206;BME280;1615;53.602;11.418;2022-11-30T04:21:33;102008.22;;;7.09;100.00
3206;BME280;1615;53.602;11.418;2022-11-30T04:23:58;102003.97;;;7.13;100.00
3206;BME280;1615;53.602;11.418;2022-11-30T04:26:23;101997.75;;;7.29;100.00
3206;BME280;1615;53.602;11.418;2022-11-30T04:28:49;102002.13;;;7.30;100.00
3206;BME280;1615;53.602;11.418;2022-11-30T04:31:14;101933.66;;;6.64;100.00
3206;BME280;1615;53.602;11.418;2022-11-30T04:33:39;102001.50;;;7.00;100.00
3206;BME280;1615;53.602;11.418;2022-11-30T04:36:12;101995.69;;;7.08;100.00
3206;BME280;1615;53.602;11.418;2022-11-30T04:38:39;102000.38;;;7.24;100.00
3206;BME280;1615;53.602;11.418;2022-11-30T04:41:06;102006.59;;;7.08;100.00
3206;BME280;1615;53.602;11.418;2022-11-30T04:43:32;102008.22;;;7.09;100.00
3206;BME280;1615;53.602;11.418;2022-11-30T04:45:57;102003.84;;;7.08;100.00
3206;BME280;1615;53.602;11.418;2022-11-30T04:48:23;102007.53;;;7.02;100.00
3206;BME280;1615;53.602;11.418;2022-11-30T04:50:48;102024.59;;;7.09;100.00
3206;BME280;1615;53.602;11.418;2022-11-30T04:53:13;102013.84;;;7.02;100.00
3206;BME280;1615;53.602;11.418;2022-11-30T04:55:39;102009.91;;;7.10;100.00
3206;BME280;1615;53.602;11.418;2022-11-30T04:58:05;102008.34;;;7.14;100.00
3206;BME280;1615;53.602;11.418;2022-11-30T05:00:31;102012.53;;;7.05;100.00
3206;BME280;1615;53.602;11.418;2022-11-30T05:02:57;102013.59;;;7.04;100.00
3206;BME280;1615;53.602;11.418;2022-11-30T05:05:22;102007.88;;;7.05;100.00
3206;BME280;1615;53.602;11.418;2022-11-30T05:07:49;102015.97;;;7.00;100.00
3206;BME280;1615;53.602;11.418;2022-11-30T05:10:15;102011.22;;;6.96;100.00
3206;BME280;1615;53.602;11.418;2022-11-30T05:12:41;102014.31;;;6.99;100.00
3206;BME280;1615;53.602;11.418;2022-11-30T05:15:06;102024.03;;;6.95;100.00
3206;BME280;1615;53.602;11.418;2022-11-30T05:17:32;102024.13;;;7.00;100.00
3206;BME280;1615;53.602;11.418;2022-11-30T05:19:57;102028.88;;;7.05;100.00
3206;BME280;1615;53.602;11.418;2022-11-30T05:22:22;102026.06;;;7.00;100.00
3206;BME280;1615;53.602;11.418;2022-11-30T05:24:48;102022.59;;;6.93;100.00
3206;BME280;1615;53.602;11.418;2022-11-30T05:27:13;102027.47;;;6.91;100.00
3206;BME280;1615;53.602;11.418;2022-11-30T05:29:38;102021.31;;;6.84;100.00
3206;BME280;1615;53.602;11.418;2022-11-30T05:32:04;102019.44;;;6.73;100.00
3206;BME280;1615;53.602;11.418;2022-11-30T05:34:29;102040.88;;;6.92;100.00
3206;BME280;1615;53.602;11.418;2022-11-30T05:36:54;102044.53;;;6.98;100.00
3206;BME280;1615;53.602;11.418;2022-11-30T05:39:20;102035.66;;;6.91;100.00
3206;BME280;1615;53.602;11.418;2022-11-30T05:41:45;102046.56;;;6.91;100.00
3206;BME280;1615;53.602;11.418;2022-11-30T05:44:10;101958.53;;;6.33;100.00
3206;BME280;1615;53.602;11.418;2022-11-30T05:46:37;102047.50;;;6.85;100.00
3206;BME280;1615;53.602;11.418;2022-11-30T05:49:03;102044.66;;;6.80;100.00
3206;BME280;1615;53.602;11.418;2022-11-30T05:51:28;102049.03;;;6.81;100.00
3206;BME280;1615;53.602;11.418;2022-11-30T05:53:53;102054.03;;;6.84;100.00
3206;BME280;1615;53.602;11.418;2022-11-30T05:56:20;101985.41;;;6.52;100.00
3206;BME280;1615;53.602;11.418;2022-11-30T05:58:46;102055.69;;;6.85;100.00
3206;BME280;1615;53.602;11.418;2022-11-30T06:01:23;102056.16;;;6.82;100.00
3206;BME280;1615;53.602;11.418;2022-11-30T06:03:49;102056.16;;;6.82;100.00
3206;BME280;1615;53.602;11.418;2022-11-30T06:06:14;102062.09;;;6.79;100.00
3206;BME280;1615;53.602;11.418;2022-11-30T06:08:40;102063.97;;;6.78;100.00
3206;BME280;1615;53.602;11.418;2022-11-30T06:11:06;102009.94;;;6.41;100.00
3206;BME280;1615;53.602;11.418;2022-11-30T06:13:32;102065.50;;;6.74;100.00
3206;BME280;1615;53.602;11.418;2022-11-30T06:15:58;102064.09;;;6.72;100.00
3206;BME280;1615;53.602;11.418;2022-11-30T06:18:24;102052.47;;;6.65;100.00
3206;BME280;1615;53.602;11.418;2022-11-30T06:20:49;102064.19;;;6.77;100.00
3206;BME280;1615;53.602;11.418;2022-11-30T06:23:15;102017.63;;;6.32;100.00
3206;BME280;1615;53.602;11.418;2022-11-30T06:25:40;102073.13;;;6.84;100.00
3206;BME280;1615;53.602;11.418;2022-11-30T06:28:08;102073.13;;;6.84;100.00
3206;BME280;1615;53.602;11.418;2022-11-30T06:30:33;102067.53;;;6.79;100.00
3206;BME280;1615;53.602;11.418;2022-11-30T06:32:59;102045.59;;;6.62;100.00
3206;BME280;1615;53.602;11.418;2022-11-30T06:35:24;101972.53;;;6.25;100.00
3206;BME280;1615;53.602;11.418;2022-11-30T06:37:49;102070.38;;;6.84;100.00
3206;BME280;1615;53.602;11.418;2022-11-30T06:40:15;102072.50;;;6.82;100.00
3206;BME280;1615;53.602;11.418;2022-11-30T06:42:41;102100.69;;;6.76;100.00
3206;BME280;1615;53.602;11.418;2022-11-30T06:45:06;102078.53;;;6.72;100.00
3206;BME280;1615;53.602;11.418;2022-11-30T06:47:32;102086.50;;;6.74;100.00
3206;BME280;1615;53.602;11.418;2022-11-30T06:49:57;102093.59;;;6.75;100.00
3206;BME280;1615;53.602;11.418;2022-11-30T06:52:23;102095.25;;;6.76;100.00
3206;BME280;1615;53.602;11.418;2022-11-30T06:54:49;102088.16;;;6.75;100.00
3206;BME280;1615;53.602;11.418;2022-11-30T06:57:14;102087.31;;;6.74;100.00
3206;BME280;1615;53.602;11.418;2022-11-30T06:59:39;102095.03;;;6.77;100.00
3206;BME280;1615;53.602;11.418;2022-11-30T07:02:11;102097.75;;;6.77;100.00
3206;BME280;1615;53.602;11.418;2022-11-30T07:04:37;102089.81;;;6.76;100.00
3206;BME280;1615;53.602;11.418;2022-11-30T07:07:03;102100.69;;;6.76;100.00
3206;BME280;1615;53.602;11.418;2022-11-30T07:09:29;102101.38;;;6.60;100.00
3206;BME280;1615;53.602;11.418;2022-11-30T07:11:54;102101.66;;;6.70;100.00
3206;BME280;1615;53.602;11.418;2022-11-30T07:14:19;102096.56;;;6.73;100.00
3206;BME280;1615;53.602;11.418;2022-11-30T07:16:45;102098.53;;;6.55;100.00
3206;BME280;1615;53.602;11.418;2022-11-30T07:19:10;102111.69;;;6.58;100.00
3206;BME280;1615;53.602;11.418;2022-11-30T07:21:35;102095.81;;;6.55;100.00
3206;BME280;1615;53.602;11.418;2022-11-30T07:24:01;102045.78;;;6.26;100.00
3206;BME280;1615;53.602;11.418;2022-11-30T07:26:44;102121.09;;;6.62;100.00
3206;BME280;1615;53.602;11.418;2022-11-30T07:29:10;102099.75;;;6.59;100.00
3206;BME280;1615;53.602;11.418;2022-11-30T07:31:35;102125.47;;;6.63;100.00
3206;BME280;1615;53.602;11.418;2022-11-30T07:34:06;102121.78;;;6.69;100.00
3206;BME280;1615;53.602;11.418;2022-11-30T07:36:32;102076.47;;;6.45;100.00
3206;BME280;1615;53.602;11.418;2022-11-30T07:38:58;102125.84;;;6.78;100.00
3206;BME280;1615;53.602;11.418;2022-11-30T07:41:23;102132.59;;;6.75;100.00
3206;BME280;1615;53.602;11.418;2022-11-30T07:43:49;102107.09;;;6.70;100.00
3206;BME280;1615;53.602;11.418;2022-11-30T07:46:15;102130.00;;;6.80;100.00
3206;BME280;1615;53.602;11.418;2022-11-30T07:48:41;102129.25;;;6.62;100.00
3206;BME280;1615;53.602;11.418;2022-11-30T07:51:11;102132.16;;;6.49;100.00
3206;BME280;1615;53.602;11.418;2022-11-30T07:53:37;102142.25;;;6.60;100.00
3206;BME280;1615;53.602;11.418;2022-11-30T07:56:04;102148.06;;;6.52;100.00
3206;BME280;1615;53.602;11.418;2022-11-30T07:58:30;102142.69;;;6.45;100.00
3206;BME280;1615;53.602;11.418;2022-11-30T08:01:01;102170.56;;;6.59;100.00
3206;BME280;1615;53.602;11.418;2022-11-30T08:03:26;102151.72;;;6.46;100.00
3206;BME280;1615;53.602;11.418;2022-11-30T08:05:52;102151.47;;;6.47;100.00
3206;BME280;1615;53.602;11.418;2022-11-30T08:08:17;102146.00;;;6.47;100.00
3206;BME280;1615;53.602;11.418;2022-11-30T08:10:42;102152.72;;;6.63;100.00
3206;BME280;1615;53.602;11.418;2022-11-30T08:13:07;102072.13;;;6.03;100.00
3206;BME280;1615;53.602;11.418;2022-11-30T08:15:33;102154.94;;;6.54;100.00
3206;BME280;1615;53.602;11.418;2022-11-30T08:17:59;102158.13;;;6.51;100.00
3206;BME280;1615;53.602;11.418;2022-11-30T08:20:29;102154.19;;;6.47;100.00
3206;BME280;1615;53.602;11.418;2022-11-30T08:22:54;102161.06;;;6.50;100.00
3206;BME280;1615;53.602;11.418;2022-11-30T08:25:19;102158.97;;;6.52;100.00
3206;BME280;1615;53.602;11.418;2022-11-30T08:27:45;102156.81;;;6.54;100.00
3206;BME280;1615;53.602;11.418;2022-11-30T08:30:10;102159.22;;;6.62;100.00
3206;BME280;1615;53.602;11.418;2022-11-30T08:32:36;102121.75;;;6.46;100.00
3206;BME280;1615;53.602;11.418;2022-11-30T08:35:01;102154.94;;;6.66;100.00
3206;BME280;1615;53.602;11.418;2022-11-30T08:37:26;102158.75;;;6.65;100.00
3206;BME280;1615;53.602;11.418;2022-11-30T08:39:52;102160.41;;;6.66;100.00
3206;BME280;1615;53.602;11.418;2022-11-30T08:42:17;102158.28;;;6.68;100.00
3206;BME280;1615;53.602;11.418;2022-11-30T08:44:43;102082.72;;;6.22;100.00
3206;BME280;1615;53.602;11.418;2022-11-30T08:47:08;102162.78;;;6.74;100.00
3206;BME280;1615;53.602;11.418;2022-11-30T08:49:33;102154.03;;;6.72;100.00
3206;BME280;1615;53.602;11.418;2022-11-30T08:51:58;102166.47;;;6.68;100.00
3206;BME280;1615;53.602;11.418;2022-11-30T08:54:24;102174.16;;;6.71;100.00
3206;BME280;1615;53.602;11.418;2022-11-30T08:56:51;102169.31;;;6.73;100.00
3206;BME280;1615;53.602;11.418;2022-11-30T08:59:16;102110.09;;;6.39;100.00
3206;BME280;1615;53.602;11.418;2022-11-30T09:01:42;102180.91;;;6.68;100.00
3206;BME280;1615;53.602;11.418;2022-11-30T09:04:07;102187.31;;;6.74;100.00
3206;BME280;1615;53.602;11.418;2022-11-30T09:06:32;102167.88;;;6.70;100.00
3206;BME280;1615;53.602;11.418;2022-11-30T09:08:58;102068.41;;;6.27;100.00
3206;BME280;1615;53.602;11.418;2022-11-30T09:11:32;102181.78;;;6.92;100.00
3206;BME280;1615;53.602;11.418;2022-11-30T09:14:00;102185.56;;;6.91;100.00
3206;BME280;1615;53.602;11.418;2022-11-30T09:16:27;102184.38;;;6.87;100.00
3206;BME280;1615;53.602;11.418;2022-11-30T09:18:53;102125.88;;;6.37;100.00
3206;BME280;1615;53.602;11.418;2022-11-30T09:21:21;102184.59;;;6.74;100.00
3206;BME280;1615;53.602;11.418;2022-11-30T09:23:47;102189.56;;;6.77;100.00
3206;BME280;1615;53.602;11.418;2022-11-30T09:26:16;102186.84;;;6.77;100.00
3206;BME280;1615;53.602;11.418;2022-11-30T09:28:43;102181.53;;;6.82;100.00
3206;BME280;1615;53.602;11.418;2022-11-30T09:31:14;101788.41;;;4.32;100.00
3206;BME280;1615;53.602;11.418;2022-11-30T09:33:39;102188.84;;;6.70;100.00
3206;BME280;1615;53.602;11.418;2022-11-30T09:36:08;102192.19;;;6.72;100.00
3206;BME280;1615;53.602;11.418;2022-11-30T09:38:34;102180.66;;;6.70;100.00
3206;BME280;1615;53.602;11.418;2022-11-30T09:41:03;102108.22;;;6.39;100.00
3206;BME280;1615;53.602;11.418;2022-11-30T09:46:13;102187.34;;;6.85;100.00
3206;BME280;1615;53.602;11.418;2022-11-30T09:48:47;102189.38;;;6.90;100.00
3206;BME280;1615;53.602;11.418;2022-11-30T09:51:18;102189.72;;;6.93;100.00
3206;BME280;1615;53.602;11.418;2022-11-30T09:53:48;102190.94;;;6.97;100.00
3206;BME280;1615;53.602;11.418;2022-11-30T09:56:28;102180.13;;;7.14;100.00
3206;BME280;1615;53.602;11.418;2022-11-30T09:59:18;102178.13;;;7.09;100.00
3206;BME280;1615;53.602;11.418;2022-11-30T10:01:42;102182.38;;;7.05;100.00
3206;BME280;1615;53.602;11.418;2022-11-30T10:04:23;102189.50;;;7.06;100.00
3206;BME280;1615;53.602;11.418;2022-11-30T10:15:28;102181.94;;;7.08;100.00
3206;BME280;1615;53.602;11.418;2022-11-30T10:18:14;102169.72;;;7.11;100.00
3206;BME280;1615;53.602;11.418;2022-11-30T10:25:58;102177.06;;;7.22;100.00
3206;BME280;1615;53.602;11.418;2022-11-30T10:28:33;102178.28;;;7.26;100.00
3206;BME280;1615;53.602;11.418;2022-11-30T10:31:02;102172.81;;;7.26;100.00
3206;BME280;1615;53.602;11.418;2022-11-30T10:33:33;102167.38;;;7.26;100.00
3206;BME280;1615;53.602;11.418;2022-11-30T10:36:07;102155.25;;;7.22;100.00
3206;BME280;1615;53.602;11.418;2022-11-30T10:38:42;102173.06;;;7.36;100.00
3206;BME280;1615;53.602;11.418;2022-11-30T10:41:23;102171.72;;;7.38;100.00
3206;BME280;1615;53.602;11.418;2022-11-30T10:43:58;102174.94;;;7.47;100.00
3206;BME280;1615;53.602;11.418;2022-11-30T10:46:29;102176.09;;;7.51;100.00
3206;BME280;1615;53.602;11.418;2022-11-30T10:49:01;102169.47;;;7.35;100.00
3206;BME280;1615;53.602;11.418;2022-11-30T10:51:27;102171.59;;;7.45;100.00
3206;BME280;1615;53.602;11.418;2022-11-30T10:53:53;102165.47;;;7.49;100.00
3206;BME280;1615;53.602;11.418;2022-11-30T10:56:18;102164.03;;;7.47;100.00
3206;BME280;1615;53.602;11.418;2022-11-30T10:58:48;102159.03;;;7.44;100.00
3206;BME280;1615;53.602;11.418;2022-11-30T11:01:36;102171.25;;;7.53;100.00
3206;BME280;1615;53.602;11.418;2022-11-30T11:04:22;102171.97;;;7.48;100.00
3206;BME280;1615;53.602;11.418;2022-11-30T11:06:51;102172.91;;;7.54;100.00
3206;BME280;1615;53.602;11.418;2022-11-30T11:12:17;102171.38;;;7.58;100.00
3206;BME280;1615;53.602;11.418;2022-11-30T11:14:43;102178.25;;;7.49;100.00
3206;BME280;1615;53.602;11.418;2022-11-30T11:19:45;102173.16;;;7.52;100.00
3206;BME280;1615;53.602;11.418;2022-11-30T11:22:22;102177.78;;;7.52;100.00
3206;BME280;1615;53.602;11.418;2022-11-30T11:24:50;102179.56;;;7.46;100.00
3206;BME280;1615;53.602;11.418;2022-11-30T11:27:23;102174.44;;;7.38;100.00
3206;BME280;1615;53.602;11.418;2022-11-30T11:30:04;102182.28;;;7.46;100.00
3206;BME280;1615;53.602;11.418;2022-11-30T11:32:32;102178.59;;;7.41;100.00
3206;BME280;1615;53.602;11.418;2022-11-30T11:34:58;102144.94;;;7.12;100.00
3206;BME280;1615;53.602;11.418;2022-11-30T11:37:28;102184.56;;;7.49;100.00
3206;BME280;1615;53.602;11.418;2022-11-30T11:42:30;102185.38;;;7.50;100.00
3206;BME280;1615;53.602;11.418;2022-11-30T11:44:57;102181.72;;;7.44;100.00
3206;BME280;1615;53.602;11.418;2022-11-30T11:47:28;102184.78;;;7.48;100.00
3206;BME280;1615;53.602;11.418;2022-11-30T11:50:24;102187.75;;;7.35;100.00
3206;BME280;1615;53.602;11.418;2022-11-30T11:55:40;102192.25;;;7.29;100.00
3206;BME280;1615;53.602;11.418;2022-11-30T11:58:13;102176.00;;;7.11;100.00
3206;BME280;1615;53.602;11.418;2022-11-30T12:00:41;102183.97;;;7.24;100.00
3206;BME280;1615;53.602;11.418;2022-11-30T12:06:03;102196.53;;;7.37;100.00
3206;BME280;1615;53.602;11.418;2022-11-30T12:08:46;102199.84;;;7.39;100.00
3206;BME280;1615;53.602;11.418;2022-11-30T12:11:22;102203.66;;;7.38;100.00
3206;BME280;1615;53.602;11.418;2022-11-30T12:13:49;102189.75;;;7.28;100.00
3206;BME280;1615;53.602;11.418;2022-11-30T12:26:46;102206.72;;;7.53;100.00
3206;BME280;1615;53.602;11.418;2022-11-30T12:32:22;102163.31;;;7.40;100.00
3206;BME280;1615;53.602;11.418;2022-11-30T12:38:22;102210.75;;;7.62;100.00
3206;BME280;1615;53.602;11.418;2022-11-30T12:40:56;102211.34;;;7.64;100.00
3206;BME280;1615;53.602;11.418;2022-11-30T12:43:44;102199.72;;;7.57;100.00
3206;BME280;1615;53.602;11.418;2022-11-30T12:46:36;102211.94;;;7.66;100.00
3206;BME280;1615;53.602;11.418;2022-11-30T12:52:59;102219.53;;;7.64;100.00
3206;BME280;1615;53.602;11.418;2022-11-30T13:03:38;102205.50;;;7.72;100.00
3206;BME280;1615;53.602;11.418;2022-11-30T13:06:37;102208.47;;;7.70;100.00
3206;BME280;1615;53.602;11.418;2022-11-30T13:09:28;102202.66;;;7.67;100.00
3206;BME280;1615;53.602;11.418;2022-11-30T13:12:02;102213.25;;;7.75;100.00
3206;BME280;1615;53.602;11.418;2022-11-30T13:14:32;102222.38;;;7.69;100.00
3206;BME280;1615;53.602;11.418;2022-11-30T13:17:01;102229.97;;;7.67;100.00
3206;BME280;1615;53.602;11.418;2022-11-30T13:22:35;102224.75;;;7.54;100.00
3206;BME280;1615;53.602;11.418;2022-11-30T13:27:54;102229.16;;;7.55;100.00
3206;BME280;1615;53.602;11.418;2022-11-30T13:35:58;102212.66;;;7.50;100.00
3206;BME280;1615;53.602;11.418;2022-11-30T13:38:24;102225.97;;;7.58;100.00
3206;BME280;1615;53.602;11.418;2022-11-30T13:41:00;102221.66;;;7.62;100.00
3206;BME280;1615;53.602;11.418;2022-11-30T13:43:46;102223.81;;;7.60;100.00
3206;BME280;1615;53.602;11.418;2022-11-30T13:46:14;102220.50;;;7.58;100.00
3206;BME280;1615;53.602;11.418;2022-11-30T13:48:43;102225.09;;;7.57;100.00
3206;BME280;1615;53.602;11.418;2022-11-30T13:51:10;102144.81;;;7.19;100.00
3206;BME280;1615;53.602;11.418;2022-11-30T13:53:37;101873.22;;;5.52;100.00
3206;BME280;1615;53.602;11.418;2022-11-30T13:56:04;102223.34;;;7.63;100.00
3206;BME280;1615;53.602;11.418;2022-11-30T13:58:31;102212.66;;;7.61;100.00
3206;BME280;1615;53.602;11.418;2022-11-30T14:04:46;102225.97;;;7.58;100.00
3206;BME280;1615;53.602;11.418;2022-11-30T14:06:53;102219.31;;;7.54;100.00
3206;BME280;1615;53.602;11.418;2022-11-30T14:14:58;102149.53;;;7.00;100.00
3206;BME280;1615;53.602;11.418;2022-11-30T14:17:28;102233.41;;;7.51;100.00
3206;BME280;1615;53.602;11.418;2022-11-30T14:20:03;102231.19;;;7.48;100.00
3206;BME280;1615;53.602;11.418;2022-11-30T14:22:32;102239.13;;;7.49;100.00
3206;BME280;1615;53.602;11.418;2022-11-30T14:24:57;102234.47;;;7.50;100.00
3206;BME280;1615;53.602;11.418;2022-11-30T14:27:26;102230.34;;;7.59;100.00
3206;BME280;1615;53.602;11.418;2022-11-30T14:29:56;102194.03;;;7.35;100.00
3206;BME280;1615;53.602;11.418;2022-11-30T14:32:32;102229.38;;;7.53;100.00
3206;BME280;1615;53.602;11.418;2022-11-30T14:35:11;102256.09;;;7.51;100.00
3206;BME280;1615;53.602;11.418;2022-11-30T14:37:43;102231.19;;;7.48;100.00
3206;BME280;1615;53.602;11.418;2022-11-30T14:40:19;102233.53;;;7.56;100.00
3206;BME280;1615;53.602;11.418;2022-11-30T14:42:50;102180.63;;;7.22;100.00